Fort Defiance, AZ (86504)

5:24 AM MDT on April 25, 2017 (GMT -0600)
Window Rock | | Change Station
Active Advisory: Wind Advisory Active Notice: Public Information Statement

Elev 6742 ft 35.65 °N, 109.07 °W | Updated 31 minutes ago

Rain
Rain
46 °F
Feels Like 40 °F
N
13
Wind Variable Wind from SW

Today
High -- | Low -- °F
--% Chance of Precip.
Yesterday
High -- | Low -- °F
Precip. -- in
Pressure 29.48 in
Visibility 10.0 miles
Clouds Mostly Cloudy 4500 ft
Overcast 5500 ft
Windchill 40 °F
Dew Point 36 °F
Humidity 68%
Rainfall 0.00 in
Snow Depth Not available.
6:30 AM 7:58 PM
Waning Crescent, 2% visible
METAR KRQE 251053Z AUTO 23011KT 10SM -RA BKN045 OVC055 08/02 A2976 RMK AO2 PK WND 24028/0957 RAB07 SLP981 P0000 T00780022 TSNO
Pressure 29.48 in
Visibility 10.0 miles
Clouds Mostly Cloudy 4500 ft
Overcast 5500 ft
Windchill 40 °F
Dew Point 36 °F
Humidity 68%
Rainfall 0.00 in
Snow Depth Not available.
6:30 AM 7:58 PM
Waning Crescent, 2% visible
METAR KRQE 251053Z AUTO 23011KT 10SM -RA BKN045 OVC055 08/02 A2976 RMK AO2 PK WND 24028/0957 RAB07 SLP981 P0000 T00780022 TSNO

Get Your Daily Forecast Email!

Thanks for signing up!

Be on the lookout for a verification email in your inbox.

You'll start receiving severe weather alerts in your inbox..

×

10-Day Weather Forecast

Almanac

Astronomy

Apr. 25, 2017 Rise Set
Actual Time
Civil Twilight
Nautical Twilight
Astronomical Twilight
Moon
Length of Visible Light
Length of Day
Tomorrow will be .
, % of the Moon is Illuminated

Today's Extremes

State Highs State Lows

Community

WunderPhotos

WunderBlog® & News

Nearby

Air Quality

  Air Quality AQ Index Pollutant
Not available.

Snow Depth

Station Depth Elevation

Earthquake Activity

City Distance Mag. Time & Date
Minimum magnitude displayed is 2.5.

Coastal Water Temperatures

Place Temperature

Stations

Nearby Weather Stations

Station Location Temp. Windchill Dew Point Humidity Wind Precip. Elev Updated Type
                   

Watches & Warnings

Wind Advisory
Issued: 2:27 AM MDT Apr. 25, 2017 – National Weather Service

... Wind Advisory remains in effect from noon today to 8 PM MST
this evening...

* timing... gusty west to northwest winds will increase late
morning and early afternoon. The winds will continue into
the evening.

* Winds... west to northwest winds 20 to 30 mph with gusts to
between 40 and 45 mph.

* Impacts... winds this strong can make driving difficult...
especially for high profile vehicles. Consider securing loose
belongings on your property.

Precautionary/preparedness actions...

A Wind Advisory means that sustained winds of 30 to 39 mph... or
gusts from 40 to 57 mph... are expected. Additional
weather information is on the web at www.Weather.Gov/Flagstaff.